Larkhall, United Kingdom
Current Conditions -  °F | °C
As of 11:20 PM on Tuesday 25 Nov 2014 (Local Time) from EGPF Reporting Station
Scattered Clouds Scattered Clouds  
Wind Chill: 42°   Ceiling: Unl
Heat Index: 45°   Visibility: 6mi
Dew Point: 45°   Wind: 5mph
Humidity: 100%   Direction: 110°ESE
Pressure: 30.12"   Gusts: NA
Location:  55.73°N, 3.97°W
Report Text: EGPF 252320Z AUTO 11004KT 9999 SCT041 07/07 Q1020
Loading
Personal Weather Stations






























Interactive Weather Map New forecast layout! Learn more

10-Day Weather Forecast

Advertisements
Track Severe Weather on mobile